Time;durP1;ratioP1;P1;durP2;ratioP2;P2;SDS_P1;SDS_P2;PMS_P1;PMS_P2;Temp;Humidity;BMP_temperature;BMP_pressure;BME280_temperature;BME280_humidity;BME280_pressure;Samples;Min_cycle;Max_cycle;Signal;HPM_P1;HPM_P2
2023/06/17 00:01:19;;;;;;;2.90;2.70;;;;;;;;;;5093527;28;20601;-79
2023/06/17 00:03:46;;;;;;;3.03;2.83;;;;;;;;;;5093117;28;20235;-78
2023/06/17 00:06:15;;;;;;;2.38;2.17;;;;;;;;;;5093668;28;20257;-78
2023/06/17 00:08:43;;;;;;;2.85;2.65;;;;;;;;;;5092850;28;20203;-78
2023/06/17 00:11:10;;;;;;;2.47;2.33;;;;;;;;;;5093080;28;20252;-78
2023/06/17 00:13:38;;;;;;;2.78;2.58;;;;;;;;;;5092978;28;20573;-79
2023/06/17 00:16:06;;;;;;;2.47;2.28;;;;;;;;;;5092962;28;20295;-78
2023/06/17 00:18:33;;;;;;;2.88;2.08;;;;;;;;;;5092861;28;20277;-79
2023/06/17 00:21:02;;;;;;;2.33;2.20;;;;;;;;;;5092740;28;20235;-79
2023/06/17 00:23:30;;;;;;;3.08;2.88;;;;;;;;;;5092787;28;20192;-79
2023/06/17 00:25:58;;;;;;;2.85;2.65;;;;;;;;;;5092676;28;20197;-78
2023/06/17 00:28:25;;;;;;;2.97;2.78;;;;;;;;;;5092628;28;20196;-79
2023/06/17 00:30:53;;;;;;;2.72;2.53;;;;;;;;;;5092699;28;20220;-79
2023/06/17 00:33:20;;;;;;;3.90;3.03;;;;;;;;;;5092250;28;20643;-79
2023/06/17 00:35:47;;;;;;;3.35;3.05;;;;;;;;;;5092826;28;20200;-77
2023/06/17 00:38:15;;;;;;;4.10;3.67;;;;;;;;;;5092394;28;20311;-78
2023/06/17 00:40:44;;;;;;;3.53;3.22;;;;;;;;;;5092599;28;20220;-78
2023/06/17 00:43:11;;;;;;;5.20;3.45;;;;;;;;;;5092603;28;20212;-78
2023/06/17 00:45:39;;;;;;;3.15;2.95;;;;;;;;;;5093127;28;20200;-78
2023/06/17 00:48:08;;;;;;;4.38;4.07;;;;;;;;;;5092377;28;20291;-78
2023/06/17 00:50:37;;;;;;;3.17;2.88;;;;;;;;;;5093219;28;20220;-79
2023/06/17 00:53:05;;;;;;;3.47;3.17;;;;;;;;;;5092542;28;20683;-79
2023/06/17 00:55:33;;;;;;;3.60;3.30;;;;;;;;;;5092636;28;20261;-79
2023/06/17 00:58:02;;;;;;;3.10;2.90;;;;;;;;;;5092386;28;20224;-79
2023/06/17 01:00:29;;;;;;;3.10;2.90;;;;;;;;;;5092547;28;20224;-79
2023/06/17 01:02:58;;;;;;;3.00;2.80;;;;;;;;;;5092345;28;20579;-78
2023/06/17 01:05:27;;;;;;;2.72;2.53;;;;;;;;;;5093508;28;20204;-78
2023/06/17 01:08:14;;;;;;;2.35;2.25;;;;;;;;;;5098927;28;20678;-79
2023/06/17 01:10:50;;;;;;;2.40;2.30;;;;;;;;;;5099025;28;20220;-78
2023/06/17 01:13:19;;;;;;;2.28;2.17;;;;;;;;;;5099050;28;20694;-78
2023/06/17 01:15:47;;;;;;;2.72;2.50;;;;;;;;;;5099315;28;20208;-79
2023/06/17 01:18:17;;;;;;;2.83;2.50;;;;;;;;;;5098912;28;20268;-79
2023/06/17 01:20:45;;;;;;;2.30;2.20;;;;;;;;;;5098811;28;20231;-79
2023/06/17 01:23:14;;;;;;;2.85;2.65;;;;;;;;;;5099088;28;20206;-79
2023/06/17 01:25:43;;;;;;;2.75;2.55;;;;;;;;;;5099465;28;20647;-79
2023/06/17 01:28:16;;;;;;;3.42;3.13;;;;;;;;;;5098811;28;20200;-78
2023/06/17 01:30:44;;;;;;;3.03;2.75;;;;;;;;;;5099070;28;20601;-79
2023/06/17 01:33:14;;;;;;;2.92;2.72;;;;;;;;;;5098547;28;20220;-79
2023/06/17 01:35:46;;;;;;;3.17;2.97;;;;;;;;;;5098917;28;20196;-79
2023/06/17 01:38:19;;;;;;;2.90;2.70;;;;;;;;;;5098366;28;20200;-78
2023/06/17 01:40:49;;;;;;;2.67;2.47;;;;;;;;;;5099047;28;20219;-79
2023/06/17 01:43:17;;;;;;;2.70;2.50;;;;;;;;;;5098659;28;20204;-78
2023/06/17 01:45:45;;;;;;;3.08;2.85;;;;;;;;;;5098549;28;20204;-79
2023/06/17 01:48:13;;;;;;;2.67;2.47;;;;;;;;;;5098571;28;20196;-78
2023/06/17 01:50:41;;;;;;;3.10;2.90;;;;;;;;;;5098817;28;20281;-79
2023/06/17 01:53:08;;;;;;;3.03;2.80;;;;;;;;;;5098776;28;20203;-79
2023/06/17 01:55:36;;;;;;;2.88;2.67;;;;;;;;;;5098423;28;20196;-78
2023/06/17 01:58:04;;;;;;;4.20;3.78;;;;;;;;;;5098102;28;20196;-79
2023/06/17 02:00:32;;;;;;;4.10;3.75;;;;;;;;;;5098614;28;20228;-79
2023/06/17 02:02:59;;;;;;;4.43;3.65;;;;;;;;;;5098543;28;20240;-78
2023/06/17 02:05:27;;;;;;;3.38;3.15;;;;;;;;;;5098446;28;20197;-79
2023/06/17 02:07:56;;;;;;;3.10;2.90;;;;;;;;;;5098750;28;20267;-78
2023/06/17 02:10:24;;;;;;;2.90;2.70;;;;;;;;;;5098706;28;20327;-79
2023/06/17 02:12:51;;;;;;;2.78;2.58;;;;;;;;;;5098156;28;20295;-79
2023/06/17 02:15:20;;;;;;;3.13;2.45;;;;;;;;;;5098101;28;20204;-79
2023/06/17 02:17:48;;;;;;;3.42;3.13;;;;;;;;;;5095664;28;20211;-79
2023/06/17 02:20:15;;;;;;;2.70;2.50;;;;;;;;;;5094606;28;20235;-79
2023/06/17 02:22:42;;;;;;;3.38;3.05;;;;;;;;;;5094794;28;20203;-78
2023/06/17 02:25:10;;;;;;;3.30;3.00;;;;;;;;;;5095317;28;20286;-78
2023/06/17 02:27:37;;;;;;;2.88;2.67;;;;;;;;;;5095096;28;20222;-78
2023/06/17 02:30:07;;;;;;;2.70;2.50;;;;;;;;;;5094857;28;20222;-79
2023/06/17 02:32:36;;;;;;;3.53;3.33;;;;;;;;;;5095630;28;20204;-79
2023/06/17 02:35:04;;;;;;;3.75;3.45;;;;;;;;;;5094967;28;20387;-79
2023/06/17 02:37:32;;;;;;;3.67;3.00;;;;;;;;;;5095108;28;20196;-79
2023/06/17 02:39:59;;;;;;;2.90;2.70;;;;;;;;;;5094605;28;20224;-79
2023/06/17 02:42:27;;;;;;;3.25;3.05;;;;;;;;;;5095160;28;20206;-79
2023/06/17 02:44:54;;;;;;;3.40;3.20;;;;;;;;;;5094599;28;20196;-79
2023/06/17 02:47:21;;;;;;;3.75;3.45;;;;;;;;;;5095231;28;20264;-79
2023/06/17 02:49:50;;;;;;;3.88;3.55;;;;;;;;;;5094878;28;20713;-79
2023/06/17 02:52:18;;;;;;;4.18;3.78;;;;;;;;;;5094354;28;20204;-79
2023/06/17 02:54:45;;;;;;;3.20;3.00;;;;;;;;;;5094398;28;20201;-79
2023/06/17 02:57:12;;;;;;;3.78;3.47;;;;;;;;;;5095230;28;20234;-79
2023/06/17 02:59:40;;;;;;;2.67;2.47;;;;;;;;;;5094100;28;20220;-79
2023/06/17 03:02:08;;;;;;;2.75;2.55;;;;;;;;;;5094996;28;20228;-79
2023/06/17 03:04:35;;;;;;;2.70;2.50;;;;;;;;;;5094608;28;20200;-79
2023/06/17 03:07:05;;;;;;;2.45;2.25;;;;;;;;;;5094471;28;20200;-79
2023/06/17 03:09:33;;;;;;;2.50;2.33;;;;;;;;;;5094321;28;20956;-79
2023/06/17 03:12:02;;;;;;;3.17;2.97;;;;;;;;;;5094285;28;20295;-79
2023/06/17 03:14:29;;;;;;;3.25;2.95;;;;;;;;;;5094803;28;20617;-79
2023/06/17 03:16:58;;;;;;;3.80;3.05;;;;;;;;;;5094647;28;20208;-79
2023/06/17 03:19:26;;;;;;;3.05;2.72;;;;;;;;;;5094359;28;20232;-79
2023/06/17 03:21:54;;;;;;;3.03;2.75;;;;;;;;;;5094371;28;20239;-79
2023/06/17 03:24:23;;;;;;;3.53;3.22;;;;;;;;;;5094066;28;20200;-79
2023/06/17 03:26:51;;;;;;;2.90;2.67;;;;;;;;;;5094548;28;20691;-79
2023/06/17 03:29:18;;;;;;;3.22;3.03;;;;;;;;;;5093189;28;20254;-79
2023/06/17 03:31:46;;;;;;;2.70;2.50;;;;;;;;;;5094378;28;20292;-79
2023/06/17 03:34:13;;;;;;;3.13;2.92;;;;;;;;;;5093727;28;20203;-79
2023/06/17 03:36:40;;;;;;;2.42;2.30;;;;;;;;;;5094110;28;20208;-79
2023/06/17 03:39:08;;;;;;;3.08;2.53;;;;;;;;;;5093516;28;20287;-79
2023/06/17 03:41:37;;;;;;;2.38;2.17;;;;;;;;;;5093937;28;20225;-79
2023/06/17 03:44:05;;;;;;;3.63;3.42;;;;;;;;;;5093740;28;20206;-79
2023/06/17 03:46:32;;;;;;;2.40;2.20;;;;;;;;;;5093809;28;20211;-79
2023/06/17 03:48:59;;;;;;;2.47;2.28;;;;;;;;;;5093616;28;20207;-78
2023/06/17 03:51:27;;;;;;;2.58;2.38;;;;;;;;;;5093545;28;20699;-79
2023/06/17 03:53:54;;;;;;;2.00;1.90;;;;;;;;;;5093602;28;20702;-79
2023/06/17 03:56:22;;;;;;;2.47;2.28;;;;;;;;;;5093464;28;20360;-79
2023/06/17 03:58:53;;;;;;;2.47;2.28;;;;;;;;;;5092863;28;20204;-79
2023/06/17 04:01:21;;;;;;;4.60;2.42;;;;;;;;;;5093410;28;20747;-79
2023/06/17 04:03:48;;;;;;;3.55;2.13;;;;;;;;;;5093631;28;20301;-78
2023/06/17 04:06:16;;;;;;;2.50;2.30;;;;;;;;;;5093488;28;20200;-79
2023/06/17 04:08:44;;;;;;;2.10;2.00;;;;;;;;;;5093076;28;20220;-79
2023/06/17 04:11:11;;;;;;;2.30;2.10;;;;;;;;;;5092456;28;20224;-79
2023/06/17 04:13:39;;;;;;;2.47;2.28;;;;;;;;;;5092892;28;20204;-79
2023/06/17 04:16:08;;;;;;;2.80;2.60;;;;;;;;;;5093306;28;20585;-78
2023/06/17 04:18:35;;;;;;;2.58;2.38;;;;;;;;;;5092420;28;20261;-79
2023/06/17 04:21:02;;;;;;;2.83;2.63;;;;;;;;;;5091858;28;20216;-79
2023/06/17 04:23:30;;;;;;;2.58;2.38;;;;;;;;;;5110113;28;20663;-79
2023/06/17 04:25:57;;;;;;;2.90;2.70;;;;;;;;;;5113165;28;20297;-79
2023/06/17 04:28:25;;;;;;;3.03;2.83;;;;;;;;;;5113177;28;20197;-79
2023/06/17 04:30:53;;;;;;;3.53;2.97;;;;;;;;;;5112955;28;20219;-79
2023/06/17 04:33:24;;;;;;;3.13;2.85;;;;;;;;;;5112965;28;20286;-79
2023/06/17 04:35:51;;;;;;;2.97;2.78;;;;;;;;;;5113285;28;20298;-79
2023/06/17 04:38:20;;;;;;;4.88;3.05;;;;;;;;;;5112641;28;20210;-79
2023/06/17 04:40:52;;;;;;;3.83;3.58;;;;;;;;;;5112424;28;20227;-79
2023/06/17 04:43:22;;;;;;;3.92;3.63;;;;;;;;;;5105830;28;20574;-79
2023/06/17 04:45:51;;;;;;;3.70;3.42;;;;;;;;;;5092588;28;20197;-79
2023/06/17 04:48:19;;;;;;;3.92;3.63;;;;;;;;;;5092362;28;20203;-78
2023/06/17 04:50:48;;;;;;;3.63;3.33;;;;;;;;;;5092282;28;20711;-79
2023/06/17 04:53:16;;;;;;;4.53;3.50;;;;;;;;;;5092542;28;20273;-78
2023/06/17 04:55:43;;;;;;;5.57;4.78;;;;;;;;;;5092312;28;20208;-79
2023/06/17 04:58:11;;;;;;;4.38;3.97;;;;;;;;;;5092130;28;20286;-79
2023/06/17 05:00:38;;;;;;;4.13;3.83;;;;;;;;;;5091438;28;20230;-79
2023/06/17 05:03:05;;;;;;;5.15;4.72;;;;;;;;;;5092350;28;20210;-79
2023/06/17 05:05:33;;;;;;;4.13;3.83;;;;;;;;;;5092086;28;20210;-79
2023/06/17 05:08:02;;;;;;;5.10;4.70;;;;;;;;;;5091962;28;20288;-79
2023/06/17 05:10:29;;;;;;;4.63;4.22;;;;;;;;;;5092076;28;20217;-79
2023/06/17 05:12:57;;;;;;;4.82;4.43;;;;;;;;;;5091779;28;20214;-79
2023/06/17 05:15:24;;;;;;;4.80;4.40;;;;;;;;;;5091503;28;20291;-79
2023/06/17 05:17:52;;;;;;;4.38;3.97;;;;;;;;;;5090852;28;20230;-78
2023/06/17 05:20:19;;;;;;;3.85;3.55;;;;;;;;;;5092131;28;20230;-79
2023/06/17 05:22:47;;;;;;;4.80;4.40;;;;;;;;;;5091913;28;20702;-79
2023/06/17 05:25:16;;;;;;;4.75;4.35;;;;;;;;;;5091782;28;20207;-77
2023/06/17 05:27:43;;;;;;;4.53;4.18;;;;;;;;;;5091797;28;20559;-78
2023/06/17 05:30:12;;;;;;;4.40;3.60;;;;;;;;;;5091662;28;20216;-79
2023/06/17 05:32:39;;;;;;;4.18;3.78;;;;;;;;;;5091875;28;20211;-79
2023/06/17 05:35:08;;;;;;;4.93;4.50;;;;;;;;;;5092333;28;20588;-79
2023/06/17 05:37:35;;;;;;;5.95;5.45;;;;;;;;;;5108167;28;20202;-79
2023/06/17 05:40:03;;;;;;;5.32;4.88;;;;;;;;;;5112156;28;20231;-77
2023/06/17 05:42:31;;;;;;;7.75;5.15;;;;;;;;;;5111921;28;20227;-74
2023/06/17 05:44:59;;;;;;;6.05;4.35;;;;;;;;;;5091304;28;20664;-75
2023/06/17 05:47:26;;;;;;;4.85;4.30;;;;;;;;;;5091218;28;20200;-75
2023/06/17 05:49:54;;;;;;;4.00;3.70;;;;;;;;;;5090621;28;20216;-75
2023/06/17 05:52:21;;;;;;;5.38;4.95;;;;;;;;;;5092530;28;20192;-75
2023/06/17 05:54:48;;;;;;;5.07;4.15;;;;;;;;;;5094643;28;20211;-75
2023/06/17 05:57:16;;;;;;;4.60;4.20;;;;;;;;;;5095239;28;20222;-76
2023/06/17 05:59:45;;;;;;;6.97;6.28;;;;;;;;;;5095232;28;20231;-76
2023/06/17 06:02:12;;;;;;;6.18;5.65;;;;;;;;;;5094739;28;20607;-75
2023/06/17 06:04:39;;;;;;;5.45;4.95;;;;;;;;;;5094737;28;20204;-76
2023/06/17 06:07:07;;;;;;;5.38;4.97;;;;;;;;;;5094725;28;20279;-76
2023/06/17 06:09:35;;;;;;;4.97;4.47;;;;;;;;;;5094758;28;20284;-76
2023/06/17 06:12:03;;;;;;;4.90;4.50;;;;;;;;;;5094980;28;20200;-75
2023/06/17 06:14:31;;;;;;;5.05;4.65;;;;;;;;;;5094844;28;20204;-74
2023/06/17 06:17:00;;;;;;;5.28;4.78;;;;;;;;;;5095046;28;20571;-76
2023/06/17 06:19:27;;;;;;;5.47;4.97;;;;;;;;;;5094063;28;20228;-75
2023/06/17 06:21:54;;;;;;;4.35;3.95;;;;;;;;;;5115724;22;20731;-77
2023/06/17 06:24:22;;;;;;;4.10;3.80;;;;;;;;;;5094556;28;20231;-77
2023/06/17 06:26:49;;;;;;;4.05;3.75;;;;;;;;;;5094770;28;20215;-77
2023/06/17 06:29:17;;;;;;;3.78;3.55;;;;;;;;;;5095637;28;20223;-76
2023/06/17 06:31:44;;;;;;;3.60;3.35;;;;;;;;;;5102618;28;20223;-77
2023/06/17 06:34:13;;;;;;;6.93;6.32;;;;;;;;;;5086094;28;20199;-77
2023/06/17 06:36:41;;;;;;;6.50;5.32;;;;;;;;;;5095200;28;20321;-77
2023/06/17 06:39:08;;;;;;;5.68;4.97;;;;;;;;;;5094935;28;20200;-77
2023/06/17 06:41:36;;;;;;;6.30;5.32;;;;;;;;;;5094755;28;20220;-77
2023/06/17 06:44:03;;;;;;;5.00;4.60;;;;;;;;;;5094616;28;20200;-77
2023/06/17 06:46:32;;;;;;;4.65;4.35;;;;;;;;;;5095061;28;20200;-77
2023/06/17 06:49:00;;;;;;;6.63;5.90;;;;;;;;;;5094960;28;20204;-77
2023/06/17 06:51:28;;;;;;;5.53;5.03;;;;;;;;;;5094696;28;20220;-76
2023/06/17 06:53:56;;;;;;;4.45;4.15;;;;;;;;;;5094840;28;20204;-76
2023/06/17 06:56:24;;;;;;;4.28;3.97;;;;;;;;;;5094245;28;20204;-77
2023/06/17 06:58:51;;;;;;;4.85;4.45;;;;;;;;;;5094644;28;20200;-78
2023/06/17 07:01:19;;;;;;;5.15;4.38;;;;;;;;;;5094762;28;20231;-77
2023/06/17 07:03:46;;;;;;;5.13;4.63;;;;;;;;;;5093697;28;20206;-77
2023/06/17 07:06:13;;;;;;;5.10;4.70;;;;;;;;;;5094546;28;20207;-78
2023/06/17 07:08:42;;;;;;;5.88;4.97;;;;;;;;;;5093932;28;20204;-78
2023/06/17 07:11:10;;;;;;;4.15;3.85;;;;;;;;;;5094187;28;20226;-77
2023/06/17 07:13:37;;;;;;;4.85;4.45;;;;;;;;;;5094006;28;20203;-77
2023/06/17 07:16:05;;;;;;;5.93;5.32;;;;;;;;;;5094085;28;20204;-78
2023/06/17 07:18:32;;;;;;;4.93;4.43;;;;;;;;;;5086291;28;20197;-78
2023/06/17 07:21:00;;;;;;;5.63;5.22;;;;;;;;;;5073852;28;20239;-78
2023/06/17 07:23:27;;;;;;;5.25;4.78;;;;;;;;;;5073237;28;20276;-77
2023/06/17 07:25:56;;;;;;;3.75;3.45;;;;;;;;;;5089249;28;20199;-78
2023/06/17 07:28:24;;;;;;;7.72;4.18;;;;;;;;;;5095022;28;20295;-78
2023/06/17 07:30:52;;;;;;;3.42;3.13;;;;;;;;;;5094911;28;20311;-78
2023/06/17 07:33:19;;;;;;;3.08;2.88;;;;;;;;;;5093685;28;20198;-78
2023/06/17 07:35:47;;;;;;;3.42;3.13;;;;;;;;;;5093932;28;20682;-77
2023/06/17 07:38:14;;;;;;;3.30;3.00;;;;;;;;;;5093666;28;20206;-77
2023/06/17 07:40:42;;;;;;;6.78;3.50;;;;;;;;;;5094018;28;20658;-77
2023/06/17 07:43:11;;;;;;;3.60;3.30;;;;;;;;;;5093927;28;20319;-77
2023/06/17 07:45:38;;;;;;;3.75;3.45;;;;;;;;;;5094242;28;20211;-78
2023/06/17 07:48:06;;;;;;;3.55;3.30;;;;;;;;;;5094367;28;20204;-80
2023/06/17 07:50:34;;;;;;;3.63;3.40;;;;;;;;;;5093786;28;20212;-78
2023/06/17 07:53:01;;;;;;;3.70;3.40;;;;;;;;;;5094167;28;20206;-78
2023/06/17 07:55:29;;;;;;;3.40;3.05;;;;;;;;;;5096208;28;20207;-78
2023/06/17 07:57:57;;;;;;;3.22;2.92;;;;;;;;;;5095775;28;20205;-78
2023/06/17 08:00:26;;;;;;;2.72;2.53;;;;;;;;;;5097786;28;20216;-78
2023/06/17 08:02:54;;;;;;;2.88;2.67;;;;;;;;;;5096860;28;20231;-78
2023/06/17 08:05:22;;;;;;;2.70;2.50;;;;;;;;;;5102535;28;20208;-78
2023/06/17 08:07:50;;;;;;;3.30;3.00;;;;;;;;;;5095803;28;20292;-79
2023/06/17 08:10:17;;;;;;;3.10;2.90;;;;;;;;;;5094152;28;20252;-79
2023/06/17 08:12:46;;;;;;;3.72;3.42;;;;;;;;;;5094327;28;20304;-83
2023/06/17 08:15:13;;;;;;;4.72;3.33;;;;;;;;;;5093831;28;20291;-80
2023/06/17 08:17:42;;;;;;;2.70;2.50;;;;;;;;;;5094556;28;20691;-79
2023/06/17 08:20:11;;;;;;;3.40;3.20;;;;;;;;;;5093864;28;20276;-79
2023/06/17 08:22:38;;;;;;;3.30;3.00;;;;;;;;;;5094017;28;20219;-79
2023/06/17 08:25:07;;;;;;;3.90;3.42;;;;;;;;;;5093377;28;20668;-79
2023/06/17 08:27:34;;;;;;;3.17;2.97;;;;;;;;;;5093463;28;20210;-78
2023/06/17 08:30:02;;;;;;;3.38;3.08;;;;;;;;;;5094300;28;20295;-81
2023/06/17 08:32:30;;;;;;;4.70;3.58;;;;;;;;;;5088259;28;20222;-82
2023/06/17 08:35:00;;;;;;;3.03;2.83;;;;;;;;;;5094601;28;20249;-82
2023/06/17 08:37:27;;;;;;;3.83;3.28;;;;;;;;;;5094541;28;20287;-81
2023/06/17 08:39:55;;;;;;;2.88;2.67;;;;;;;;;;5093282;28;20200;-81
2023/06/17 08:42:22;;;;;;;5.65;3.13;;;;;;;;;;5094128;28;20969;-81
2023/06/17 08:44:51;;;;;;;2.95;2.75;;;;;;;;;;5093706;28;20208;-82
2023/06/17 08:47:18;;;;;;;3.35;3.05;;;;;;;;;;5093154;28;20202;-81
2023/06/17 08:49:46;;;;;;;3.55;3.10;;;;;;;;;;5093830;28;20208;-81
2023/06/17 08:52:15;;;;;;;3.70;3.30;;;;;;;;;;5093656;28;20231;-82
2023/06/17 08:54:43;;;;;;;3.70;3.40;;;;;;;;;;5093783;28;20660;-81
2023/06/17 08:57:12;;;;;;;3.50;3.17;;;;;;;;;;5093780;28;20204;-82
2023/06/17 08:59:40;;;;;;;3.25;3.05;;;;;;;;;;5093782;28;20297;-82
2023/06/17 09:02:10;;;;;;;3.55;3.25;;;;;;;;;;5094140;28;20216;-82
2023/06/17 09:04:37;;;;;;;5.90;3.05;;;;;;;;;;5093647;28;20220;-82
2023/06/17 09:07:06;;;;;;;3.42;3.13;;;;;;;;;;5093203;28;20200;-82
2023/06/17 09:09:36;;;;;;;3.17;2.97;;;;;;;;;;5093496;28;20207;-82
2023/06/17 09:12:05;;;;;;;2.88;2.67;;;;;;;;;;5094363;28;20243;-82
2023/06/17 09:14:33;;;;;;;3.60;3.20;;;;;;;;;;5093716;28;20738;-81
2023/06/17 09:17:01;;;;;;;3.90;3.60;;;;;;;;;;5093563;28;20206;-82
2023/06/17 09:19:32;;;;;;;4.10;3.80;;;;;;;;;;5093219;28;20204;-82
2023/06/17 09:22:06;;;;;;;3.80;3.22;;;;;;;;;;5093347;28;20231;-82
2023/06/17 09:24:36;;;;;;;4.03;2.90;;;;;;;;;;5093177;28;20721;-81
2023/06/17 09:27:04;;;;;;;3.50;2.78;;;;;;;;;;5094909;28;20204;-82
2023/06/17 09:29:31;;;;;;;3.05;2.85;;;;;;;;;;5097626;28;20291;-82
2023/06/17 09:32:02;;;;;;;4.10;3.50;;;;;;;;;;5096650;28;20220;-82
2023/06/17 09:34:29;;;;;;;3.67;3.38;;;;;;;;;;5097200;28;20193;-82
2023/06/17 09:37:00;;;;;;;3.28;3.08;;;;;;;;;;5097882;28;20342;-82
2023/06/17 09:39:31;;;;;;;4.32;3.92;;;;;;;;;;5096435;28;20200;-82
2023/06/17 09:42:08;;;;;;;3.40;3.20;;;;;;;;;;5096646;28;20267;-82
2023/06/17 09:44:38;;;;;;;3.33;3.13;;;;;;;;;;5097050;28;20220;-82
2023/06/17 09:47:09;;;;;;;3.60;3.30;;;;;;;;;;5097046;28;20291;-82
2023/06/17 09:49:38;;;;;;;3.72;3.53;;;;;;;;;;5096767;28;20207;-82
2023/06/17 09:52:08;;;;;;;3.28;3.08;;;;;;;;;;5097124;28;20670;-82
2023/06/17 09:54:36;;;;;;;3.90;3.50;;;;;;;;;;5096329;28;20196;-81
2023/06/17 09:57:07;;;;;;;3.53;3.22;;;;;;;;;;5096707;28;20197;-83
2023/06/17 09:59:35;;;;;;;4.00;3.47;;;;;;;;;;5096736;28;20744;-82
2023/06/17 10:02:03;;;;;;;3.50;3.10;;;;;;;;;;5096542;28;20259;-82
2023/06/17 10:04:31;;;;;;;2.90;2.70;;;;;;;;;;5095918;28;20228;-82
2023/06/17 10:06:59;;;;;;;3.20;3.00;;;;;;;;;;5097272;28;20196;-82
2023/06/17 10:09:28;;;;;;;3.95;3.65;;;;;;;;;;5096301;28;20226;-81
2023/06/17 10:11:55;;;;;;;3.92;3.53;;;;;;;;;;5097339;28;20311;-82
2023/06/17 10:14:29;;;;;;;3.53;3.30;;;;;;;;;;5097111;28;20299;-81
2023/06/17 10:16:57;;;;;;;2.90;2.70;;;;;;;;;;5096847;28;20207;-82
2023/06/17 10:19:30;;;;;;;3.20;2.88;;;;;;;;;;5096771;28;20200;-82
2023/06/17 10:21:58;;;;;;;3.53;3.22;;;;;;;;;;5097552;28;20232;-82
2023/06/17 10:24:27;;;;;;;3.63;3.33;;;;;;;;;;5096599;28;20220;-82
2023/06/17 10:26:55;;;;;;;3.35;3.05;;;;;;;;;;5095955;28;20290;-81
2023/06/17 10:29:24;;;;;;;3.83;3.53;;;;;;;;;;5096917;28;20228;-82
2023/06/17 10:31:51;;;;;;;3.50;3.30;;;;;;;;;;5097097;28;20738;-80
2023/06/17 10:34:23;;;;;;;4.00;3.17;;;;;;;;;;5096053;28;20754;-82
2023/06/17 10:36:52;;;;;;;3.22;3.03;;;;;;;;;;5096583;28;20208;-82
2023/06/17 10:39:23;;;;;;;3.00;2.80;;;;;;;;;;5094297;28;20204;-81
2023/06/17 10:41:59;;;;;;;3.55;3.25;;;;;;;;;;5095863;28;20307;-80
2023/06/17 10:44:42;;;;;;;3.03;2.83;;;;;;;;;;5095341;28;20227;-81
2023/06/17 10:47:22;;;;;;;2.85;2.58;;;;;;;;;;5095686;28;20208;-81
2023/06/17 10:49:51;;;;;;;3.65;3.35;;;;;;;;;;5095139;28;20228;-81
2023/06/17 10:52:20;;;;;;;3.88;3.58;;;;;;;;;;5094991;28;20283;-80
2023/06/17 10:54:52;;;;;;;3.00;2.80;;;;;;;;;;5095340;28;20238;-81
2023/06/17 10:57:34;;;;;;;4.20;3.88;;;;;;;;;;5094644;28;20587;-81
2023/06/17 11:00:08;;;;;;;3.85;3.55;;;;;;;;;;5095986;28;20295;-80
2023/06/17 11:02:37;;;;;;;3.60;3.30;;;;;;;;;;5095559;28;20314;-81
2023/06/17 11:05:05;;;;;;;3.47;3.28;;;;;;;;;;5095689;28;20718;-80
2023/06/17 11:07:32;;;;;;;3.30;3.05;;;;;;;;;;5095073;28;20258;-81
2023/06/17 11:10:00;;;;;;;3.85;3.10;;;;;;;;;;5094751;28;20196;-82
2023/06/17 11:12:35;;;;;;;3.10;2.90;;;;;;;;;;5095083;28;20215;-81
2023/06/17 11:15:07;;;;;;;3.85;3.38;;;;;;;;;;5075051;28;20193;-82
2023/06/17 11:17:34;;;;;;;4.38;3.97;;;;;;;;;;5074533;28;20205;-82
2023/06/17 11:20:02;;;;;;;3.55;3.25;;;;;;;;;;5097103;28;20287;-85
2023/06/17 11:22:29;;;;;;;3.58;3.33;;;;;;;;;;5094281;28;20235;-80
2023/06/17 11:24:58;;;;;;;4.00;3.67;;;;;;;;;;5095561;28;20216;-82
2023/06/17 11:27:25;;;;;;;3.65;3.45;;;;;;;;;;5085741;28;20255;-79
2023/06/17 11:29:53;;;;;;;4.63;4.22;;;;;;;;;;5093171;28;20283;-81
2023/06/17 11:32:23;;;;;;;4.18;3.70;;;;;;;;;;5093552;28;20200;-80
2023/06/17 11:34:51;;;;;;;4.22;3.92;;;;;;;;;;5093732;28;20778;-81
2023/06/17 11:37:19;;;;;;;7.07;6.47;;;;;;;;;;5093576;28;20228;-80
2023/06/17 11:39:46;;;;;;;4.32;4.03;;;;;;;;;;5092018;28;20196;-80
2023/06/17 11:42:14;;;;;;;3.35;3.15;;;;;;;;;;5092434;28;20204;-80
2023/06/17 11:44:41;;;;;;;4.07;3.40;;;;;;;;;;5093410;28;20319;-81
2023/06/17 11:47:10;;;;;;;4.00;3.70;;;;;;;;;;5093637;28;20200;-80
2023/06/17 11:49:42;;;;;;;4.13;3.72;;;;;;;;;;5093566;28;20197;-80
2023/06/17 11:52:11;;;;;;;3.00;2.80;;;;;;;;;;5093923;28;20216;-80
2023/06/17 11:54:48;;;;;;;3.65;3.40;;;;;;;;;;5093708;28;20319;-80
2023/06/17 11:57:18;;;;;;;3.47;3.15;;;;;;;;;;5093726;28;20290;-80
2023/06/17 11:59:46;;;;;;;3.47;3.13;;;;;;;;;;5093481;28;20207;-80
2023/06/17 12:02:14;;;;;;;3.40;3.10;;;;;;;;;;5093674;28;20258;-80
2023/06/17 12:04:46;;;;;;;3.72;3.42;;;;;;;;;;5093613;28;20227;-80
2023/06/17 12:07:13;;;;;;;3.83;3.53;;;;;;;;;;5093433;28;20206;-80
2023/06/17 12:09:51;;;;;;;3.90;3.55;;;;;;;;;;5093519;28;20196;-80
2023/06/17 12:12:30;;;;;;;3.85;3.55;;;;;;;;;;5093457;28;20198;-80
2023/06/17 12:15:03;;;;;;;4.13;3.78;;;;;;;;;;5074964;28;20192;-80
2023/06/17 12:17:38;;;;;;;3.75;3.53;;;;;;;;;;5073670;28;20238;-80
2023/06/17 12:20:15;;;;;;;4.10;3.72;;;;;;;;;;5072785;28;20232;-78
2023/06/17 12:22:42;;;;;;;3.17;2.90;;;;;;;;;;5129374;22;20219;-85
2023/06/17 12:25:11;;;;;;;4.43;4.07;;;;;;;;;;5115428;28;20224;-84
2023/06/17 12:27:39;;;;;;;3.70;3.40;;;;;;;;;;5114480;28;20246;-84
2023/06/17 12:30:09;;;;;;;4.00;3.70;;;;;;;;;;5115991;28;20304;-85
2023/06/17 12:32:39;;;;;;;4.25;3.95;;;;;;;;;;5115674;28;20234;-84
2023/06/17 12:35:11;;;;;;;4.30;3.90;;;;;;;;;;5114500;28;20210;-84
2023/06/17 12:37:40;;;;;;;3.53;3.33;;;;;;;;;;5114351;28;20199;-84
2023/06/17 12:40:09;;;;;;;3.92;3.63;;;;;;;;;;5114957;28;20217;-84
2023/06/17 12:42:36;;;;;;;3.65;3.35;;;;;;;;;;5115195;28;20252;-83
2023/06/17 12:45:04;;;;;;;4.15;3.83;;;;;;;;;;5114220;28;20203;-82
2023/06/17 12:47:32;;;;;;;3.58;3.28;;;;;;;;;;5113441;28;20282;-83
2023/06/17 12:49:59;;;;;;;3.20;3.00;;;;;;;;;;5113742;28;20751;-84
2023/06/17 12:52:28;;;;;;;3.35;3.15;;;;;;;;;;5114038;28;20200;-83
2023/06/17 12:55:00;;;;;;;4.05;3.75;;;;;;;;;;5114622;28;20670;-84
2023/06/17 12:57:27;;;;;;;4.45;4.05;;;;;;;;;;5114660;28;20188;-85
2023/06/17 12:59:55;;;;;;;4.53;4.10;;;;;;;;;;5114725;28;20743;-84
2023/06/17 13:02:22;;;;;;;3.80;3.50;;;;;;;;;;5113306;28;20283;-84
2023/06/17 13:04:50;;;;;;;3.78;3.47;;;;;;;;;;5114253;28;20686;-85
2023/06/17 13:07:19;;;;;;;4.20;3.80;;;;;;;;;;5114043;28;20710;-85
2023/06/17 13:09:48;;;;;;;3.65;3.35;;;;;;;;;;5115019;28;20766;-83
2023/06/17 13:12:15;;;;;;;4.05;3.50;;;;;;;;;;5115185;28;20225;-84
2023/06/17 13:14:43;;;;;;;4.55;3.40;;;;;;;;;;5115507;28;20290;-83
2023/06/17 13:17:10;;;;;;;4.55;4.22;;;;;;;;;;5114746;28;20196;-83
2023/06/17 13:19:38;;;;;;;3.20;3.00;;;;;;;;;;5115418;28;20258;-82
2023/06/17 13:22:06;;;;;;;4.20;3.90;;;;;;;;;;5115632;28;20632;-84
2023/06/17 13:24:33;;;;;;;3.72;3.42;;;;;;;;;;5115381;28;20283;-84
2023/06/17 13:27:03;;;;;;;3.22;3.03;;;;;;;;;;5114916;28;20211;-86
2023/06/17 13:29:30;;;;;;;4.40;4.00;;;;;;;;;;5115614;28;20733;-83
2023/06/17 13:31:57;;;;;;;4.15;3.78;;;;;;;;;;5116609;28;20223;-84
2023/06/17 13:34:26;;;;;;;4.38;4.05;;;;;;;;;;5115960;28;20268;-86
2023/06/17 13:36:53;;;;;;;5.03;4.15;;;;;;;;;;5115573;28;20188;-84
2023/06/17 13:39:21;;;;;;;4.90;4.45;;;;;;;;;;5114518;28;20310;-83
2023/06/17 13:41:48;;;;;;;4.43;4.10;;;;;;;;;;5115233;28;20626;-84
2023/06/17 13:44:17;;;;;;;3.67;3.47;;;;;;;;;;5114979;28;20764;-83
2023/06/17 13:46:45;;;;;;;3.75;3.45;;;;;;;;;;5114050;28;20310;-84
2023/06/17 13:49:12;;;;;;;4.95;4.47;;;;;;;;;;5114354;28;20650;-84
2023/06/17 13:51:40;;;;;;;4.38;4.07;;;;;;;;;;5114086;28;20231;-84
2023/06/17 13:54:09;;;;;;;4.00;3.70;;;;;;;;;;5114325;28;20211;-85
2023/06/17 13:56:36;;;;;;;3.63;3.33;;;;;;;;;;5114960;28;20290;-85
2023/06/17 13:59:04;;;;;;;3.13;2.92;;;;;;;;;;5114647;28;20310;-85
2023/06/17 14:01:32;;;;;;;3.90;3.60;;;;;;;;;;5113413;28;20290;-85
2023/06/17 14:04:00;;;;;;;3.83;3.53;;;;;;;;;;5113979;28;20290;-84
2023/06/17 14:06:27;;;;;;;4.20;3.90;;;;;;;;;;5115728;28;20277;-84
2023/06/17 14:08:56;;;;;;;3.75;3.45;;;;;;;;;;5114102;28;20250;-85
2023/06/17 14:11:23;;;;;;;4.55;4.25;;;;;;;;;;5114446;28;20210;-83
2023/06/17 14:13:51;;;;;;;4.50;4.20;;;;;;;;;;5116442;28;20291;-84
2023/06/17 14:16:19;;;;;;;4.63;4.25;;;;;;;;;;5118699;28;20672;-83
2023/06/17 14:18:47;;;;;;;4.00;3.70;;;;;;;;;;5118227;28;20654;-82
2023/06/17 14:21:24;;;;;;;3.50;3.30;;;;;;;;;;5117905;28;20229;-83
2023/06/17 14:24:08;;;;;;;4.65;4.30;;;;;;;;;;5116967;28;20207;-83
2023/06/17 14:26:37;;;;;;;3.70;3.40;;;;;;;;;;5116734;28;20219;-83
2023/06/17 14:29:06;;;;;;;3.10;2.90;;;;;;;;;;5116515;28;20223;-84
2023/06/17 14:31:34;;;;;;;4.30;4.00;;;;;;;;;;5118287;28;20299;-86
2023/06/17 14:34:03;;;;;;;4.15;3.75;;;;;;;;;;5119056;28;20221;-86
2023/06/17 14:36:31;;;;;;;3.70;3.50;;;;;;;;;;5118534;28;20191;-85
2023/06/17 14:39:00;;;;;;;4.22;3.83;;;;;;;;;;5118475;28;20286;-86
2023/06/17 14:41:28;;;;;;;3.85;3.55;;;;;;;;;;5118336;28;20199;-85
2023/06/17 14:43:55;;;;;;;4.32;4.03;;;;;;;;;;5118741;28;20649;-85
2023/06/17 14:46:22;;;;;;;4.68;4.28;;;;;;;;;;5117579;28;20215;-86
2023/06/17 14:48:50;;;;;;;4.47;4.18;;;;;;;;;;5118689;28;20269;-85
2023/06/17 14:51:19;;;;;;;3.97;3.67;;;;;;;;;;5119013;28;20203;-85